sensor_id;sensor_type;location;lat;lon;timestamp;pressure;altitude;pressure_sealevel;temperature;humidity
37610;BME280;23457;51.966;8.230;2023-01-19T00:00:44;99385.41;;;2.10;95.43
37610;BME280;23457;51.966;8.230;2023-01-19T00:03:11;99388.38;;;2.24;95.15
37610;BME280;23457;51.966;8.230;2023-01-19T00:05:41;99377.44;;;2.31;94.56
37610;BME280;23457;51.966;8.230;2023-01-19T00:08:09;99378.03;;;2.21;95.49
37610;BME280;23457;51.966;8.230;2023-01-19T00:10:41;99386.19;;;2.08;96.16
37610;BME280;23457;51.966;8.230;2023-01-19T00:13:08;99385.63;;;2.18;96.33
37610;BME280;23457;51.966;8.230;2023-01-19T00:15:35;99384.63;;;2.13;96.00
37610;BME280;23457;51.966;8.230;2023-01-19T00:18:02;99388.94;;;2.14;96.10
37610;BME280;23457;51.966;8.230;2023-01-19T00:20:29;99384.28;;;2.01;96.88
37610;BME280;23457;51.966;8.230;2023-01-19T00:23:01;99381.59;;;2.26;96.25
37610;BME280;23457;51.966;8.230;2023-01-19T00:25:28;99384.50;;;2.08;96.77
37610;BME280;23457;51.966;8.230;2023-01-19T00:27:55;99380.16;;;2.06;97.66
37610;BME280;23457;51.966;8.230;2023-01-19T00:30:24;99380.72;;;2.26;96.54
37610;BME280;23457;51.966;8.230;2023-01-19T00:32:51;99380.81;;;1.99;97.37
37610;BME280;23457;51.966;8.230;2023-01-19T00:35:17;99390.41;;;2.06;97.54
37610;BME280;23457;51.966;8.230;2023-01-19T00:37:45;99382.06;;;2.13;97.58
37610;BME280;23457;51.966;8.230;2023-01-19T00:40:12;99378.41;;;2.05;97.83
37610;BME280;23457;51.966;8.230;2023-01-19T00:42:39;99375.63;;;2.27;96.77
37610;BME280;23457;51.966;8.230;2023-01-19T00:45:08;99373.91;;;1.96;98.45
37610;BME280;23457;51.966;8.230;2023-01-19T00:47:35;99371.53;;;2.04;98.13
37610;BME280;23457;51.966;8.230;2023-01-19T00:50:02;99381.06;;;2.08;97.47
37610;BME280;23457;51.966;8.230;2023-01-19T00:52:29;99377.00;;;2.14;97.58
37610;BME280;23457;51.966;8.230;2023-01-19T00:54:55;99373.56;;;2.15;97.34
37610;BME280;23457;51.966;8.230;2023-01-19T00:57:22;99379.66;;;2.19;97.19
37610;BME280;23457;51.966;8.230;2023-01-19T00:59:48;99377.53;;;2.04;97.61
37610;BME280;23457;51.966;8.230;2023-01-19T01:02:15;99393.25;;;2.15;97.48
37610;BME280;23457;51.966;8.230;2023-01-19T01:04:42;99408.88;;;2.24;97.70
37610;BME280;23457;51.966;8.230;2023-01-19T01:07:09;99398.09;;;2.06;97.87
37610;BME280;23457;51.966;8.230;2023-01-19T01:09:35;99393.81;;;2.06;97.98
37610;BME280;23457;51.966;8.230;2023-01-19T01:12:02;99394.94;;;2.16;97.57
37610;BME280;23457;51.966;8.230;2023-01-19T01:14:31;99399.31;;;2.19;97.88
37610;BME280;23457;51.966;8.230;2023-01-19T01:16:58;99408.63;;;2.15;97.10
37610;BME280;23457;51.966;8.230;2023-01-19T01:19:25;99406.78;;;2.11;98.44
37610;BME280;23457;51.966;8.230;2023-01-19T01:21:52;99408.06;;;2.25;97.86
37610;BME280;23457;51.966;8.230;2023-01-19T01:24:19;99418.38;;;2.28;98.03
37610;BME280;23457;51.966;8.230;2023-01-19T01:26:46;99411.25;;;2.18;98.22
37610;BME280;23457;51.966;8.230;2023-01-19T01:29:13;99406.66;;;2.36;97.51
37610;BME280;23457;51.966;8.230;2023-01-19T01:31:39;99408.72;;;2.49;97.18
37610;BME280;23457;51.966;8.230;2023-01-19T01:34:06;99399.91;;;2.10;98.68
37610;BME280;23457;51.966;8.230;2023-01-19T01:36:33;99410.84;;;2.34;97.95
37610;BME280;23457;51.966;8.230;2023-01-19T01:39:01;99408.06;;;2.25;98.66
37610;BME280;23457;51.966;8.230;2023-01-19T01:41:27;99405.34;;;2.50;97.84
37610;BME280;23457;51.966;8.230;2023-01-19T01:43:56;99409.47;;;2.45;97.35
37610;BME280;23457;51.966;8.230;2023-01-19T01:46:29;99401.66;;;2.42;97.77
37610;BME280;23457;51.966;8.230;2023-01-19T01:49:03;99408.97;;;2.59;97.49
37610;BME280;23457;51.966;8.230;2023-01-19T01:51:39;99408.06;;;2.57;97.35
37610;BME280;23457;51.966;8.230;2023-01-19T01:54:23;99415.84;;;2.60;97.58
37610;BME280;23457;51.966;8.230;2023-01-19T01:56:52;99404.22;;;2.42;98.10
37610;BME280;23457;51.966;8.230;2023-01-19T01:59:24;99404.56;;;2.55;98.56
37610;BME280;23457;51.966;8.230;2023-01-19T02:01:53;99407.03;;;2.50;97.99
37610;BME280;23457;51.966;8.230;2023-01-19T02:04:48;99404.75;;;2.61;97.97
37610;BME280;23457;51.966;8.230;2023-01-19T02:07:21;99409.78;;;2.58;97.58
37610;BME280;23457;51.966;8.230;2023-01-19T02:10:13;99408.28;;;2.64;97.83
37610;BME280;23457;51.966;8.230;2023-01-19T02:12:59;99396.50;;;2.39;99.61
37610;BME280;23457;51.966;8.230;2023-01-19T02:15:44;99399.06;;;2.72;97.95
37610;BME280;23457;51.966;8.230;2023-01-19T02:18:11;99388.84;;;2.74;97.55
37610;BME280;23457;51.966;8.230;2023-01-19T02:20:42;99388.28;;;2.53;98.89
37610;BME280;23457;51.966;8.230;2023-01-19T02:23:16;99388.41;;;2.57;98.75
37610;BME280;23457;51.966;8.230;2023-01-19T02:25:46;99401.47;;;2.66;98.80
37610;BME280;23457;51.966;8.230;2023-01-19T02:28:14;99391.25;;;2.36;99.21
37610;BME280;23457;51.966;8.230;2023-01-19T02:30:41;99391.47;;;2.44;99.87
37610;BME280;23457;51.966;8.230;2023-01-19T02:33:08;99394.69;;;2.37;100.00
37610;BME280;23457;51.966;8.230;2023-01-19T02:35:36;99393.34;;;2.49;99.93
37610;BME280;23457;51.966;8.230;2023-01-19T02:38:05;99391.75;;;2.55;98.90
37610;BME280;23457;51.966;8.230;2023-01-19T02:40:33;99387.81;;;2.67;99.21
37610;BME280;23457;51.966;8.230;2023-01-19T02:43:01;99389.81;;;2.46;100.00
37610;BME280;23457;51.966;8.230;2023-01-19T02:45:29;99387.44;;;2.52;99.23
37610;BME280;23457;51.966;8.230;2023-01-19T02:47:56;99389.59;;;2.70;98.94
37610;BME280;23457;51.966;8.230;2023-01-19T02:53:15;99393.84;;;2.69;98.66
37610;BME280;23457;51.966;8.230;2023-01-19T02:55:52;99395.63;;;2.72;98.46
37610;BME280;23457;51.966;8.230;2023-01-19T02:58:36;99393.25;;;2.78;98.12
37610;BME280;23457;51.966;8.230;2023-01-19T03:01:20;99395.72;;;2.75;98.29
37610;BME280;23457;51.966;8.230;2023-01-19T03:03:54;99391.50;;;2.77;98.43
37610;BME280;23457;51.966;8.230;2023-01-19T03:06:32;99391.34;;;2.71;99.18
37610;BME280;23457;51.966;8.230;2023-01-19T03:09:07;99397.09;;;2.62;98.84
37610;BME280;23457;51.966;8.230;2023-01-19T03:11:38;99386.31;;;2.75;99.00
37610;BME280;23457;51.966;8.230;2023-01-19T03:14:11;99387.84;;;2.69;98.96
37610;BME280;23457;51.966;8.230;2023-01-19T03:16:42;99396.88;;;2.86;98.81
37610;BME280;23457;51.966;8.230;2023-01-19T03:19:20;99378.47;;;2.69;98.70
37610;BME280;23457;51.966;8.230;2023-01-19T03:21:53;99389.91;;;2.82;99.03
37610;BME280;23457;51.966;8.230;2023-01-19T03:24:23;99381.47;;;2.86;98.78
37610;BME280;23457;51.966;8.230;2023-01-19T03:26:59;99380.94;;;2.99;97.73
37610;BME280;23457;51.966;8.230;2023-01-19T03:29:29;99375.06;;;2.70;98.76
37610;BME280;23457;51.966;8.230;2023-01-19T03:32:00;99380.19;;;2.70;99.44
37610;BME280;23457;51.966;8.230;2023-01-19T03:34:29;99373.94;;;2.94;98.57
37610;BME280;23457;51.966;8.230;2023-01-19T03:37:00;99373.06;;;2.93;97.84
37610;BME280;23457;51.966;8.230;2023-01-19T03:39:28;99371.34;;;2.92;97.92
37610;BME280;23457;51.966;8.230;2023-01-19T03:41:58;99369.38;;;2.82;98.23
37610;BME280;23457;51.966;8.230;2023-01-19T03:44:29;99373.53;;;2.77;98.76
37610;BME280;23457;51.966;8.230;2023-01-19T03:46:57;99376.56;;;2.95;98.19
37610;BME280;23457;51.966;8.230;2023-01-19T03:49:25;99380.59;;;3.20;96.84
37610;BME280;23457;51.966;8.230;2023-01-19T03:51:54;99373.38;;;3.05;97.15
37610;BME280;23457;51.966;8.230;2023-01-19T03:54:22;99371.63;;;3.04;97.16
37610;BME280;23457;51.966;8.230;2023-01-19T03:56:48;99371.41;;;2.95;97.54
37610;BME280;23457;51.966;8.230;2023-01-19T03:59:15;99369.13;;;3.06;97.15
37610;BME280;23457;51.966;8.230;2023-01-19T04:01:43;99370.81;;;3.04;97.72
37610;BME280;23457;51.966;8.230;2023-01-19T04:04:10;99371.59;;;3.01;98.00
37610;BME280;23457;51.966;8.230;2023-01-19T04:06:36;99379.28;;;3.01;97.65
37610;BME280;23457;51.966;8.230;2023-01-19T04:09:03;99376.94;;;3.10;97.27
37610;BME280;23457;51.966;8.230;2023-01-19T04:11:30;99363.94;;;3.03;97.36
37610;BME280;23457;51.966;8.230;2023-01-19T04:13:57;99369.53;;;2.88;97.86
37610;BME280;23457;51.966;8.230;2023-01-19T04:16:23;99363.84;;;3.00;97.24
37610;BME280;23457;51.966;8.230;2023-01-19T04:18:50;99359.53;;;2.99;97.17
37610;BME280;23457;51.966;8.230;2023-01-19T04:21:18;99361.31;;;3.01;96.74
37610;BME280;23457;51.966;8.230;2023-01-19T04:23:45;99375.81;;;2.99;96.93
37610;BME280;23457;51.966;8.230;2023-01-19T04:26:12;99368.31;;;3.08;97.36
37610;BME280;23457;51.966;8.230;2023-01-19T04:28:39;99372.25;;;2.94;97.20
37610;BME280;23457;51.966;8.230;2023-01-19T04:31:06;99374.91;;;2.97;98.34
37610;BME280;23457;51.966;8.230;2023-01-19T04:33:33;99368.31;;;3.08;96.81
37610;BME280;23457;51.966;8.230;2023-01-19T04:36:00;99372.59;;;3.08;96.63
37610;BME280;23457;51.966;8.230;2023-01-19T04:38:27;99372.00;;;3.19;96.56
37610;BME280;23457;51.966;8.230;2023-01-19T04:40:54;99368.97;;;3.36;95.94
37610;BME280;23457;51.966;8.230;2023-01-19T04:43:22;99366.97;;;3.22;95.64
37610;BME280;23457;51.966;8.230;2023-01-19T04:45:49;99367.13;;;3.29;95.49
37610;BME280;23457;51.966;8.230;2023-01-19T04:48:17;99371.81;;;3.10;95.83
37610;BME280;23457;51.966;8.230;2023-01-19T04:50:44;99363.09;;;3.05;96.26
37610;BME280;23457;51.966;8.230;2023-01-19T04:53:11;99361.03;;;3.25;96.03
37610;BME280;23457;51.966;8.230;2023-01-19T04:55:39;99365.13;;;3.18;96.19
37610;BME280;23457;51.966;8.230;2023-01-19T04:58:06;99370.44;;;3.24;95.57
37610;BME280;23457;51.966;8.230;2023-01-19T05:00:32;99368.69;;;3.23;96.17
37610;BME280;23457;51.966;8.230;2023-01-19T05:02:59;99355.44;;;3.07;96.15
37610;BME280;23457;51.966;8.230;2023-01-19T05:05:27;99355.81;;;3.22;95.53
37610;BME280;23457;51.966;8.230;2023-01-19T05:07:54;99355.41;;;3.04;96.89
37610;BME280;23457;51.966;8.230;2023-01-19T05:10:21;99350.59;;;3.19;95.93
37610;BME280;23457;51.966;8.230;2023-01-19T05:12:49;99352.41;;;2.87;96.75
37610;BME280;23457;51.966;8.230;2023-01-19T05:15:16;99357.63;;;3.26;96.12
37610;BME280;23457;51.966;8.230;2023-01-19T05:17:44;99345.50;;;3.20;95.75
37610;BME280;23457;51.966;8.230;2023-01-19T05:20:11;99349.63;;;3.12;96.34
37610;BME280;23457;51.966;8.230;2023-01-19T05:22:42;99347.03;;;3.12;96.02
37610;BME280;23457;51.966;8.230;2023-01-19T05:25:09;99345.72;;;2.94;96.78
37610;BME280;23457;51.966;8.230;2023-01-19T05:27:36;99349.53;;;3.09;97.16
37610;BME280;23457;51.966;8.230;2023-01-19T05:30:06;99353.22;;;3.20;96.67
37610;BME280;23457;51.966;8.230;2023-01-19T05:32:33;99348.00;;;3.16;96.88
37610;BME280;23457;51.966;8.230;2023-01-19T05:34:59;99349.16;;;2.94;98.30
37610;BME280;23457;51.966;8.230;2023-01-19T05:37:26;99358.63;;;2.97;99.69
37610;BME280;23457;51.966;8.230;2023-01-19T05:39:53;99357.06;;;3.02;99.87
37610;BME280;23457;51.966;8.230;2023-01-19T05:42:20;99353.88;;;3.12;100.00
37610;BME280;23457;51.966;8.230;2023-01-19T05:44:46;99358.72;;;3.00;100.00
37610;BME280;23457;51.966;8.230;2023-01-19T05:47:13;99367.50;;;2.75;100.00
37610;BME280;23457;51.966;8.230;2023-01-19T05:49:40;99355.84;;;2.87;100.00
37610;BME280;23457;51.966;8.230;2023-01-19T05:52:07;99366.31;;;2.62;100.00
37610;BME280;23457;51.966;8.230;2023-01-19T05:54:33;99361.28;;;2.65;100.00
37610;BME280;23457;51.966;8.230;2023-01-19T05:57:00;99363.31;;;2.78;100.00
37610;BME280;23457;51.966;8.230;2023-01-19T05:59:28;99358.88;;;2.73;100.00
37610;BME280;23457;51.966;8.230;2023-01-19T06:01:54;99363.19;;;2.74;100.00
37610;BME280;23457;51.966;8.230;2023-01-19T06:04:22;99352.44;;;2.56;100.00
37610;BME280;23457;51.966;8.230;2023-01-19T06:06:49;99361.19;;;2.62;100.00
37610;BME280;23457;51.966;8.230;2023-01-19T06:09:16;99360.91;;;2.51;100.00
37610;BME280;23457;51.966;8.230;2023-01-19T06:11:44;99362.81;;;2.27;100.00
37610;BME280;23457;51.966;8.230;2023-01-19T06:14:11;99360.28;;;2.29;100.00
37610;BME280;23457;51.966;8.230;2023-01-19T06:16:38;99362.19;;;2.36;100.00
37610;BME280;23457;51.966;8.230;2023-01-19T06:19:06;99357.25;;;2.43;100.00
37610;BME280;23457;51.966;8.230;2023-01-19T06:21:32;99359.41;;;2.28;100.00
37610;BME280;23457;51.966;8.230;2023-01-19T06:23:59;99363.31;;;2.15;100.00
37610;BME280;23457;51.966;8.230;2023-01-19T06:26:26;99351.56;;;2.22;100.00
37610;BME280;23457;51.966;8.230;2023-01-19T06:28:54;99361.09;;;2.26;100.00
37610;BME280;23457;51.966;8.230;2023-01-19T06:31:21;99361.22;;;2.32;100.00
37610;BME280;23457;51.966;8.230;2023-01-19T06:33:48;99359.00;;;2.44;100.00
37610;BME280;23457;51.966;8.230;2023-01-19T06:36:15;99363.66;;;2.26;100.00
37610;BME280;23457;51.966;8.230;2023-01-19T06:38:42;99364.09;;;2.11;100.00
37610;BME280;23457;51.966;8.230;2023-01-19T06:41:08;99369.50;;;2.22;100.00
37610;BME280;23457;51.966;8.230;2023-01-19T06:43:35;99365.53;;;2.02;100.00
37610;BME280;23457;51.966;8.230;2023-01-19T06:46:02;99373.06;;;1.97;100.00
37610;BME280;23457;51.966;8.230;2023-01-19T06:48:30;99377.72;;;2.10;100.00
37610;BME280;23457;51.966;8.230;2023-01-19T06:50:57;99374.63;;;2.22;100.00
37610;BME280;23457;51.966;8.230;2023-01-19T06:53:25;99373.91;;;1.96;100.00
37610;BME280;23457;51.966;8.230;2023-01-19T06:55:57;99374.97;;;2.04;100.00
37610;BME280;23457;51.966;8.230;2023-01-19T06:58:24;99382.06;;;2.13;100.00
37610;BME280;23457;51.966;8.230;2023-01-19T07:00:51;99388.88;;;2.12;100.00
37610;BME280;23457;51.966;8.230;2023-01-19T07:03:21;99396.19;;;1.99;100.00
37610;BME280;23457;51.966;8.230;2023-01-19T07:05:52;99390.41;;;1.77;100.00
37610;BME280;23457;51.966;8.230;2023-01-19T07:08:19;99404.34;;;1.86;100.00
37610;BME280;23457;51.966;8.230;2023-01-19T07:10:46;99407.63;;;1.82;100.00
37610;BME280;23457;51.966;8.230;2023-01-19T07:13:33;99411.31;;;1.91;100.00
37610;BME280;23457;51.966;8.230;2023-01-19T07:16:04;99411.19;;;2.16;100.00
37610;BME280;23457;51.966;8.230;2023-01-19T07:18:34;99405.47;;;2.25;100.00
37610;BME280;23457;51.966;8.230;2023-01-19T07:21:01;99410.16;;;2.10;100.00
37610;BME280;23457;51.966;8.230;2023-01-19T07:23:28;99413.59;;;2.10;100.00
37610;BME280;23457;51.966;8.230;2023-01-19T07:25:57;99407.75;;;2.16;100.00
37610;BME280;23457;51.966;8.230;2023-01-19T07:28:24;99415.19;;;2.07;100.00
37610;BME280;23457;51.966;8.230;2023-01-19T07:30:52;99406.69;;;2.08;100.00
37610;BME280;23457;51.966;8.230;2023-01-19T07:33:20;99406.84;;;2.12;100.00
37610;BME280;23457;51.966;8.230;2023-01-19T07:35:54;99410.31;;;2.14;100.00
37610;BME280;23457;51.966;8.230;2023-01-19T07:38:20;99417.34;;;2.22;100.00
37610;BME280;23457;51.966;8.230;2023-01-19T07:40:47;99422.97;;;2.10;100.00
37610;BME280;23457;51.966;8.230;2023-01-19T07:43:14;99439.13;;;1.79;100.00
37610;BME280;23457;51.966;8.230;2023-01-19T07:45:41;99440.94;;;2.10;100.00
37610;BME280;23457;51.966;8.230;2023-01-19T07:48:08;99444.88;;;1.99;100.00
37610;BME280;23457;51.966;8.230;2023-01-19T07:50:35;99449.19;;;2.00;100.00
37610;BME280;23457;51.966;8.230;2023-01-19T07:53:07;99444.34;;;2.10;100.00
37610;BME280;23457;51.966;8.230;2023-01-19T07:55:34;99461.06;;;1.98;100.00
37610;BME280;23457;51.966;8.230;2023-01-19T07:58:01;99465.63;;;2.08;100.00
37610;BME280;23457;51.966;8.230;2023-01-19T08:00:35;99473.16;;;2.02;100.00
37610;BME280;23457;51.966;8.230;2023-01-19T08:03:04;99471.78;;;2.13;100.00
37610;BME280;23457;51.966;8.230;2023-01-19T08:05:31;99464.31;;;2.21;100.00
37610;BME280;23457;51.966;8.230;2023-01-19T08:07:58;99474.03;;;2.04;100.00
37610;BME280;23457;51.966;8.230;2023-01-19T08:10:27;99486.19;;;2.09;100.00
37610;BME280;23457;51.966;8.230;2023-01-19T08:12:55;99472.97;;;2.24;100.00
37610;BME280;23457;51.966;8.230;2023-01-19T08:15:23;99482.66;;;2.06;100.00
37610;BME280;23457;51.966;8.230;2023-01-19T08:18:00;99492.28;;;2.13;100.00
37610;BME280;23457;51.966;8.230;2023-01-19T08:20:28;99491.56;;;2.19;100.00
37610;BME280;23457;51.966;8.230;2023-01-19T08:22:55;99500.00;;;1.86;100.00
37610;BME280;23457;51.966;8.230;2023-01-19T08:25:35;99496.81;;;2.22;100.00
37610;BME280;23457;51.966;8.230;2023-01-19T08:28:05;99501.91;;;1.93;100.00
37610;BME280;23457;51.966;8.230;2023-01-19T08:30:32;99499.56;;;1.99;100.00
37610;BME280;23457;51.966;8.230;2023-01-19T08:32:59;99503.72;;;1.96;100.00
37610;BME280;23457;51.966;8.230;2023-01-19T08:35:35;99519.28;;;1.75;100.00
37610;BME280;23457;51.966;8.230;2023-01-19T08:38:04;99517.34;;;1.95;100.00
37610;BME280;23457;51.966;8.230;2023-01-19T08:40:33;99520.34;;;1.82;100.00
37610;BME280;23457;51.966;8.230;2023-01-19T08:43:01;99527.97;;;2.07;100.00
37610;BME280;23457;51.966;8.230;2023-01-19T08:45:40;99521.09;;;2.06;100.00
37610;BME280;23457;51.966;8.230;2023-01-19T08:48:08;99532.47;;;2.14;100.00
37610;BME280;23457;51.966;8.230;2023-01-19T08:50:35;99529.34;;;1.96;100.00
37610;BME280;23457;51.966;8.230;2023-01-19T08:53:04;99547.09;;;1.90;100.00
37610;BME280;23457;51.966;8.230;2023-01-19T08:55:35;99545.31;;;2.15;100.00
37610;BME280;23457;51.966;8.230;2023-01-19T08:58:03;99549.06;;;1.98;100.00
37610;BME280;23457;51.966;8.230;2023-01-19T09:00:32;99551.41;;;2.19;100.00
37610;BME280;23457;51.966;8.230;2023-01-19T09:03:04;99567.03;;;1.73;100.00
37610;BME280;23457;51.966;8.230;2023-01-19T09:05:34;99563.25;;;2.15;100.00
37610;BME280;23457;51.966;8.230;2023-01-19T09:08:05;99570.31;;;1.96;100.00
37610;BME280;23457;51.966;8.230;2023-01-19T09:10:34;99575.31;;;2.18;100.00
37610;BME280;23457;51.966;8.230;2023-01-19T09:13:05;99582.91;;;2.15;100.00
37610;BME280;23457;51.966;8.230;2023-01-19T09:15:34;99589.47;;;2.07;100.00
37610;BME280;23457;51.966;8.230;2023-01-19T09:18:04;99588.66;;;2.08;100.00
37610;BME280;23457;51.966;8.230;2023-01-19T09:20:31;99586.56;;;1.96;100.00
37610;BME280;23457;51.966;8.230;2023-01-19T09:23:00;99594.53;;;2.05;100.00
37610;BME280;23457;51.966;8.230;2023-01-19T09:25:26;99593.50;;;1.99;100.00
37610;BME280;23457;51.966;8.230;2023-01-19T09:27:53;99600.81;;;2.13;100.00
37610;BME280;23457;51.966;8.230;2023-01-19T09:30:21;99604.38;;;2.19;100.00
37610;BME280;23457;51.966;8.230;2023-01-19T09:32:48;99609.88;;;2.31;100.00
37610;BME280;23457;51.966;8.230;2023-01-19T09:35:15;99608.56;;;2.16;100.00
37610;BME280;23457;51.966;8.230;2023-01-19T09:37:45;99616.09;;;2.37;100.00
37610;BME280;23457;51.966;8.230;2023-01-19T09:40:14;99612.03;;;2.45;100.00
37610;BME280;23457;51.966;8.230;2023-01-19T09:42:44;99629.72;;;2.36;100.00
37610;BME280;23457;51.966;8.230;2023-01-19T09:45:21;99632.72;;;2.23;100.00
37610;BME280;23457;51.966;8.230;2023-01-19T09:47:50;99636.00;;;2.19;100.00
37610;BME280;23457;51.966;8.230;2023-01-19T09:50:26;99633.38;;;2.44;100.00
37610;BME280;23457;51.966;8.230;2023-01-19T09:53:02;99639.69;;;2.27;100.00
37610;BME280;23457;51.966;8.230;2023-01-19T09:55:32;99633.38;;;2.17;100.00
37610;BME280;23457;51.966;8.230;2023-01-19T09:57:59;99644.41;;;2.42;100.00
37610;BME280;23457;51.966;8.230;2023-01-19T10:00:28;99647.94;;;2.45;100.00
37610;BME280;23457;51.966;8.230;2023-01-19T10:03:13;99645.59;;;2.51;100.00
37610;BME280;23457;51.966;8.230;2023-01-19T10:06:00;99653.50;;;2.32;100.00
37610;BME280;23457;51.966;8.230;2023-01-19T10:08:54;99655.03;;;2.26;100.00
37610;BME280;23457;51.966;8.230;2023-01-19T10:11:59;99664.66;;;2.33;100.00
37610;BME280;23457;51.966;8.230;2023-01-19T10:14:37;99656.19;;;2.35;100.00
37610;BME280;23457;51.966;8.230;2023-01-19T10:19:49;99665.00;;;2.18;100.00
37610;BME280;23457;51.966;8.230;2023-01-19T10:22:21;99665.69;;;2.38;100.00
37610;BME280;23457;51.966;8.230;2023-01-19T10:24:55;99672.78;;;2.46;100.00
37610;BME280;23457;51.966;8.230;2023-01-19T10:27:26;99663.97;;;2.38;100.00
37610;BME280;23457;51.966;8.230;2023-01-19T10:29:54;99666.56;;;2.38;100.00
37610;BME280;23457;51.966;8.230;2023-01-19T10:32:42;99675.28;;;2.45;100.00
37610;BME280;23457;51.966;8.230;2023-01-19T10:35:14;99673.75;;;2.23;100.00
37610;BME280;23457;51.966;8.230;2023-01-19T10:37:47;99690.56;;;2.15;100.00
37610;BME280;23457;51.966;8.230;2023-01-19T10:40:38;99691.44;;;2.42;100.00
37610;BME280;23457;51.966;8.230;2023-01-19T10:43:44;99695.53;;;2.63;100.00
37610;BME280;23457;51.966;8.230;2023-01-19T10:46:16;99696.47;;;2.66;100.00
37610;BME280;23457;51.966;8.230;2023-01-19T10:48:47;99689.13;;;2.50;100.00
37610;BME280;23457;51.966;8.230;2023-01-19T10:51:15;99696.88;;;2.78;100.00
37610;BME280;23457;51.966;8.230;2023-01-19T10:53:52;99698.91;;;2.62;100.00
37610;BME280;23457;51.966;8.230;2023-01-19T10:56:34;99699.41;;;2.77;100.00
37610;BME280;23457;51.966;8.230;2023-01-19T10:59:04;99704.44;;;2.74;100.00
37610;BME280;23457;51.966;8.230;2023-01-19T11:01:32;99707.81;;;2.73;100.00
37610;BME280;23457;51.966;8.230;2023-01-19T11:04:27;99706.59;;;2.35;100.00
37610;BME280;23457;51.966;8.230;2023-01-19T11:07:13;99706.44;;;2.84;100.00
37610;BME280;23457;51.966;8.230;2023-01-19T11:09:41;99717.88;;;2.67;100.00
37610;BME280;23457;51.966;8.230;2023-01-19T11:12:16;99708.78;;;2.76;100.00
37610;BME280;23457;51.966;8.230;2023-01-19T11:14:43;99715.28;;;2.65;100.00
37610;BME280;23457;51.966;8.230;2023-01-19T11:17:23;99714.03;;;2.53;100.00
37610;BME280;23457;51.966;8.230;2023-01-19T11:19:58;99716.59;;;2.81;100.00
37610;BME280;23457;51.966;8.230;2023-01-19T11:22:31;99713.59;;;2.94;100.00
37610;BME280;23457;51.966;8.230;2023-01-19T11:25:04;99712.41;;;2.83;100.00
37610;BME280;23457;51.966;8.230;2023-01-19T11:27:33;99717.34;;;3.05;100.00
37610;BME280;23457;51.966;8.230;2023-01-19T11:30:18;99719.38;;;3.15;100.00
37610;BME280;23457;51.966;8.230;2023-01-19T11:32:47;99722.97;;;2.94;100.00
37610;BME280;23457;51.966;8.230;2023-01-19T11:35:47;99723.09;;;2.70;100.00
37610;BME280;23457;51.966;8.230;2023-01-19T11:38:18;99726.97;;;2.84;100.00
37610;BME280;23457;51.966;8.230;2023-01-19T11:40:54;99724.22;;;2.78;100.00
37610;BME280;23457;51.966;8.230;2023-01-19T11:43:23;99720.31;;;2.89;100.00
37610;BME280;23457;51.966;8.230;2023-01-19T11:45:50;99728.13;;;2.67;100.00
37610;BME280;23457;51.966;8.230;2023-01-19T11:48:32;99729.47;;;2.56;100.00
37610;BME280;23457;51.966;8.230;2023-01-19T11:51:03;99722.00;;;2.62;100.00
37610;BME280;23457;51.966;8.230;2023-01-19T11:53:33;99725.50;;;2.92;100.00
37610;BME280;23457;51.966;8.230;2023-01-19T11:56:06;99723.91;;;2.96;100.00
37610;BME280;23457;51.966;8.230;2023-01-19T11:58:42;99724.16;;;3.03;100.00
37610;BME280;23457;51.966;8.230;2023-01-19T12:01:22;99741.00;;;2.95;100.00
37610;BME280;23457;51.966;8.230;2023-01-19T12:06:32;99745.38;;;2.98;100.00
37610;BME280;23457;51.966;8.230;2023-01-19T12:09:11;99750.63;;;3.31;100.00
37610;BME280;23457;51.966;8.230;2023-01-19T12:11:44;99748.53;;;3.17;100.00
37610;BME280;23457;51.966;8.230;2023-01-19T12:14:21;99750.78;;;3.07;100.00
37610;BME280;23457;51.966;8.230;2023-01-19T12:16:52;99749.84;;;3.33;100.00
37610;BME280;23457;51.966;8.230;2023-01-19T12:19:25;99755.88;;;3.34;100.00
37610;BME280;23457;51.966;8.230;2023-01-19T12:21:55;99752.84;;;3.18;100.00
37610;BME280;23457;51.966;8.230;2023-01-19T12:27:00;99747.34;;;3.35;100.00
37610;BME280;23457;51.966;8.230;2023-01-19T12:29:30;99746.34;;;3.01;100.00
37610;BME280;23457;51.966;8.230;2023-01-19T12:34:48;99757.19;;;3.21;100.00
37610;BME280;23457;51.966;8.230;2023-01-19T12:37:41;99759.59;;;3.45;100.00
37610;BME280;23457;51.966;8.230;2023-01-19T12:40:39;99755.44;;;3.48;100.00
37610;BME280;23457;51.966;8.230;2023-01-19T12:43:05;99761.63;;;3.55;100.00
37610;BME280;23457;51.966;8.230;2023-01-19T12:45:35;99755.28;;;3.44;100.00
37610;BME280;23457;51.966;8.230;2023-01-19T12:48:04;99758.94;;;3.50;100.00
37610;BME280;23457;51.966;8.230;2023-01-19T12:50:36;99760.38;;;3.41;100.00
37610;BME280;23457;51.966;8.230;2023-01-19T12:53:13;99763.53;;;3.62;100.00
37610;BME280;23457;51.966;8.230;2023-01-19T12:55:41;99767.72;;;3.29;100.00
37610;BME280;23457;51.966;8.230;2023-01-19T12:58:15;99771.06;;;3.56;100.00
37610;BME280;23457;51.966;8.230;2023-01-19T13:01:15;99771.47;;;3.40;100.00
37610;BME280;23457;51.966;8.230;2023-01-19T13:03:44;99773.63;;;3.54;100.00
37610;BME280;23457;51.966;8.230;2023-01-19T13:06:11;99770.19;;;3.54;100.00
37610;BME280;23457;51.966;8.230;2023-01-19T13:08:57;99776.00;;;3.78;100.00
37610;BME280;23457;51.966;8.230;2023-01-19T13:11:24;99783.47;;;4.01;100.00
37610;BME280;23457;51.966;8.230;2023-01-19T13:19:00;99781.69;;;3.67;100.00
37610;BME280;23457;51.966;8.230;2023-01-19T13:21:42;99775.22;;;3.51;100.00
37610;BME280;23457;51.966;8.230;2023-01-19T13:24:15;99788.19;;;3.85;100.00
37610;BME280;23457;51.966;8.230;2023-01-19T13:29:28;99791.50;;;3.51;100.00
37610;BME280;23457;51.966;8.230;2023-01-19T13:32:12;99791.25;;;3.72;100.00
37610;BME280;23457;51.966;8.230;2023-01-19T13:34:44;99797.34;;;3.76;100.00
37610;BME280;23457;51.966;8.230;2023-01-19T13:37:23;99800.13;;;3.83;100.00
37610;BME280;23457;51.966;8.230;2023-01-19T13:39:53;99801.09;;;3.87;100.00
37610;BME280;23457;51.966;8.230;2023-01-19T13:42:37;99811.69;;;3.69;100.00
37610;BME280;23457;51.966;8.230;2023-01-19T13:45:35;99817.31;;;3.56;100.00